Terminal Aerodrome Forecast
Issued by NWS Tuscon, AZ

Home | Current Version | Previous Version | Text Only | Print | Product List | Glossary On
Versions: 1 2 3 4 5 6 7 8 9 10 11 12
000
FTUS45 KTWC 201720
TAFDUG
TAF
KDUG 201720Z 2018/2118 24014G22KT P6SM SCT060 BKN090
     FM210100 30008KT P6SM SCT050 BKN080
     FM211100 13005KT P6SM FEW080=

USA.gov is the U.S. government's official web portal to all federal, state and local government web resources and services.